地図

経路データ

SID SEASON NUMBER BASIN SUBBASIN NAME ISO_TIME NATURE LAT LON WMO_WIND WMO_PRES WMO_AGENCY TRACK_TYPE DIST2LAND LANDFALL IFLAG USA_AGENCY USA_ATCF_ID USA_LAT USA_LON USA_RECORD USA_STATUS USA_WIND USA_PRES USA_SSHS USA_R34_NE USA_R34_SE USA_R34_SW USA_R34_NW USA_R50_NE USA_R50_SE USA_R50_SW USA_R50_NW USA_R64_NE USA_R64_SE USA_R64_SW USA_R64_NW USA_POCI USA_ROCI USA_RMW USA_EYE TOKYO_LAT TOKYO_LON TOKYO_GRADE TOKYO_WIND TOKYO_PRES TOKYO_R50_DIR TOKYO_R50_LONG TOKYO_R50_SHORT TOKYO_R30_DIR TOKYO_R30_LONG TOKYO_R30_SHORT TOKYO_LAND CMA_LAT CMA_LON CMA_CAT CMA_WIND CMA_PRES HKO_LAT HKO_LON HKO_CAT HKO_WIND HKO_PRES NEWDELHI_LAT NEWDELHI_LON NEWDELHI_GRADE NEWDELHI_WIND NEWDELHI_PRES NEWDELHI_CI NEWDELHI_DP NEWDELHI_POCI REUNION_LAT REUNION_LON REUNION_TYPE REUNION_WIND REUNION_PRES REUNION_TNUM REUNION_CI REUNION_RMW REUNION_R34_NE REUNION_R34_SE REUNION_R34_SW REUNION_R34_NW REUNION_R50_NE REUNION_R50_SE REUNION_R50_SW REUNION_R50_NW REUNION_R64_NE REUNION_R64_SE REUNION_R64_SW REUNION_R64_NW BOM_LAT BOM_LON BOM_TYPE BOM_WIND BOM_PRES BOM_TNUM BOM_CI BOM_RMW BOM_R34_NE BOM_R34_SE BOM_R34_SW BOM_R34_NW BOM_R50_NE BOM_R50_SE BOM_R50_SW BOM_R50_NW BOM_R64_NE BOM_R64_SE BOM_R64_SW BOM_R64_NW BOM_ROCI BOM_POCI BOM_EYE BOM_POS_METHOD BOM_PRES_METHOD NADI_LAT NADI_LON NADI_CAT NADI_WIND NADI_PRES WELLINGTON_LAT WELLINGTON_LON WELLINGTON_WIND WELLINGTON_PRES DS824_LAT DS824_LON DS824_STAGE DS824_WIND DS824_PRES TD9636_LAT TD9636_LON TD9636_STAGE TD9636_WIND TD9636_PRES TD9635_LAT TD9635_LON TD9635_WIND TD9635_PRES TD9635_ROCI NEUMANN_LAT NEUMANN_LON NEUMANN_CLASS NEUMANN_WIND NEUMANN_PRES MLC_LAT MLC_LON MLC_CLASS MLC_WIND MLC_PRES USA_GUST BOM_GUST BOM_GUST_PER REUNION_GUST REUNION_GUST_PER USA_SEAHGT USA_SEARAD_NE USA_SEARAD_SE USA_SEARAD_SW USA_SEARAD_NW STORM_SPEED STORM_DIR
1968283N10148 1968 102 WP MM NOT_NAMED 1968-10-09 06:00:00 TS 10.0000 147.600 main 1356 1355 __O___________ -1 10.0000 147.600 0 1006 13 274
1968283N10148 1968 102 WP MM NOT_NAMED 1968-10-09 09:00:00 TS 10.0428 146.960 main 1355 1355 __P___________ -1 10.0428 146.960 0 1006 12 275
1968283N10148 1968 102 WP MM NOT_NAMED 1968-10-09 12:00:00 TS 10.1000 146.400 main 1367 1367 __O___________ -1 10.1000 146.400 0 1006 10 278
1968283N10148 1968 102 WP MM NOT_NAMED 1968-10-09 15:00:00 TS 10.1848 145.970 main 1379 1379 __P___________ -1 10.1848 145.970 0 1006 8 284
1968283N10148 1968 102 WP MM NOT_NAMED 1968-10-09 18:00:00 TS 10.3000 145.600 main 1393 1393 __O___________ -1 10.3000 145.600 0 1006 8 290
1968283N10148 1968 102 WP MM NOT_NAMED 1968-10-09 21:00:00 TS 10.4575 145.200 main 1420 1420 __P___________ -1 10.4575 145.200 0 1006 8 291
1968283N10148 1968 102 WP MM NOT_NAMED 1968-10-10 00:00:00 TS 10.6000 144.800 main 1436 1436 __O___________ -1 10.6000 144.800 0 1006 8 284
1968283N10148 1968 102 WP MM NOT_NAMED 1968-10-10 03:00:00 TS 10.6574 144.407 main 1454 1454 __P___________ -1 10.6574 144.407 0 1006 8 277
1968283N10148 1968 102 WP MM NOT_NAMED 1968-10-10 06:00:00 TS 10.7000 144.000 main 1462 1462 __O___________ -1 10.7000 144.000 0 1006 8 279
1968283N10148 1968 102 WP MM NOT_NAMED 1968-10-10 09:00:00 TS 10.7924 143.565 main 1483 1483 __P___________ -1 10.7924 143.565 0 1006 9 283
1968283N10148 1968 102 WP MM NOT_NAMED 1968-10-10 12:00:00 TS 10.9000 143.100 main 1501 1490 __O___________ -1 10.9000 143.100 0 1006 10 282
1968283N10148 1968 102 WP MM NOT_NAMED 1968-10-10 15:00:00 TS 10.9850 142.607 main 1493 1482 __P___________ -1 10.9850 142.607 0 1006 10 282
1968283N10148 1968 102 WP MM NOT_NAMED 1968-10-10 18:00:00 TS 11.1000 142.100 main 1487 1483 __O___________ -1 11.1000 142.100 0 1006 11 288
1968283N10148 1968 102 WP MM NOT_NAMED 1968-10-10 21:00:00 TS 11.3150 141.578 main 1493 1490 __P___________ -1 11.3150 141.578 0 1007 11 292
1968283N10148 1968 102 WP MM NOT_NAMED 1968-10-11 00:00:00 TS 11.5000 141.100 main 1493 1480 __O___________ -1 11.5000 141.100 0 1008 8 285
1968283N10148 1968 102 WP MM NOT_NAMED 1968-10-11 03:00:00 TS 11.5298 140.742 main 1476 1465 __P___________ -1 11.5298 140.742 0 1008 7 270
1968283N10148 1968 102 WP MM NOT_NAMED 1968-10-11 06:00:00 TS 11.5000 140.400 main 1465 1450 __O___________ -1 11.5000 140.400 0 1008 8 267
1968283N10148 1968 102 WP MM NOT_NAMED 1968-10-11 09:00:00 TS 11.4925 139.965 main 1450 1433 __P___________ -1 11.4925 139.965 0 1008 9 270
1968283N10148 1968 102 WP MM NOT_NAMED 1968-10-11 12:00:00 TS 11.5000 139.500 main 1433 1420 __O___________ -1 11.5000 139.500 0 1008 9 272
1968283N10148 1968 102 WP MM NOT_NAMED 1968-10-11 15:00:00 TS 11.5200 139.027 main 1417 1382 __P___________ -1 11.5200 139.027 0 1008 9 276
1968283N10148 1968 102 WP MM NOT_NAMED 1968-10-11 18:00:00 TS 11.6000 138.600 main 1382 1344 __O___________ -1 11.6000 138.600 0 1008 8 287
1968283N10148 1968 102 WP MM NOT_NAMED 1968-10-11 21:00:00 TS 11.7700 138.218 main 1344 1325 __P___________ -1 11.7700 138.218 0 1007 7 304
1968283N10148 1968 102 WP MM NOT_NAMED 1968-10-12 00:00:00 TS 12.0000 138.000 main 1328 1328 __O___________ -1 12.0000 138.000 1 29 1006 5 339
1968283N10148 1968 102 WP MM NOT_NAMED 1968-10-12 03:00:00 TS 12.2574 138.025 main 1335 1335 __P___________ -1 12.2574 138.025 1 26 1006 5 21
1968283N10148 1968 102 WP MM NOT_NAMED 1968-10-12 06:00:00 TS 12.5000 138.200 main 1361 1361 __O___________ -1 12.5000 138.200 1 23 1006 5 39
1968283N10148 1968 102 WP MM NOT_NAMED 1968-10-12 09:00:00 TS 12.6725 138.370 main 1385 1385 __P___________ -1 12.6725 138.370 1 1007 5 52
1968283N10148 1968 102 WP MM NOT_NAMED 1968-10-12 12:00:00 TS 12.8000 138.600 main 1407 1407 __O___________ -1 12.8000 138.600 0 1008 6 65
1968283N10148 1968 102 WP MM NOT_NAMED 1968-10-12 15:00:00 TS 12.9075 138.885 main 1441 1441 __P___________ -1 12.9075 138.885 0 1008 6 71
1968283N10148 1968 102 WP MM NOT_NAMED 1968-10-12 18:00:00 TS 13.0000 139.200 main 1475 1475 __O___________ -1 13.0000 139.200 0 1008 6 73
1968283N10148 1968 102 WP MM NOT_NAMED 1968-10-12 21:00:00 TS 13.0975 139.505 main 1509 1509 __P___________ -1 13.0975 139.505 0 1008 6 71
1968283N10148 1968 102 WP MM NOT_NAMED 1968-10-13 00:00:00 TS 13.2000 139.800 main 1542 __O___________ -1 13.2000 139.800 0 1008 6 70

デジタル台風データ・検索

IBTrACS Databaseについて

本データベースは、米国NOAAが公開する1842年以降の世界の熱帯低気圧のベストトラックデータアーカイブInternational Best Track Archive for Climate Stewardship (IBTrACS)を、ウェブで閲覧しやすい形式に変換したものです。

最終更新日:2021-12-01